sensor_id;sensor_type;location;lat;lon;timestamp;P1;durP1;ratioP1;P2;durP2;ratioP2
18159;SDS011;9205;52.032;4.314;2023-06-10T00:00:18;7.07;;;5.13;;
18159;SDS011;9205;52.032;4.314;2023-06-10T00:02:46;9.13;;;5.40;;
18159;SDS011;9205;52.032;4.314;2023-06-10T00:05:15;7.10;;;5.00;;
18159;SDS011;9205;52.032;4.314;2023-06-10T00:07:47;7.50;;;4.97;;
18159;SDS011;9205;52.032;4.314;2023-06-10T00:10:20;5.97;;;4.70;;
18159;SDS011;9205;52.032;4.314;2023-06-10T00:12:49;7.43;;;4.80;;
18159;SDS011;9205;52.032;4.314;2023-06-10T00:15:17;6.23;;;5.13;;
18159;SDS011;9205;52.032;4.314;2023-06-10T00:17:45;6.20;;;4.63;;
18159;SDS011;9205;52.032;4.314;2023-06-10T00:20:12;8.10;;;5.20;;
18159;SDS011;9205;52.032;4.314;2023-06-10T00:22:42;6.63;;;4.90;;
18159;SDS011;9205;52.032;4.314;2023-06-10T00:25:12;7.63;;;4.97;;
18159;SDS011;9205;52.032;4.314;2023-06-10T00:27:42;7.17;;;5.10;;
18159;SDS011;9205;52.032;4.314;2023-06-10T00:30:09;6.60;;;4.57;;
18159;SDS011;9205;52.032;4.314;2023-06-10T00:32:40;7.63;;;4.93;;
18159;SDS011;9205;52.032;4.314;2023-06-10T00:35:08;6.23;;;4.63;;
18159;SDS011;9205;52.032;4.314;2023-06-10T00:37:36;7.70;;;4.50;;
18159;SDS011;9205;52.032;4.314;2023-06-10T00:40:03;4.87;;;4.03;;
18159;SDS011;9205;52.032;4.314;2023-06-10T00:42:36;5.90;;;4.40;;
18159;SDS011;9205;52.032;4.314;2023-06-10T00:45:04;8.90;;;4.87;;
18159;SDS011;9205;52.032;4.314;2023-06-10T00:47:35;5.63;;;4.37;;
18159;SDS011;9205;52.032;4.314;2023-06-10T00:50:03;6.87;;;4.67;;
18159;SDS011;9205;52.032;4.314;2023-06-10T00:52:32;6.43;;;4.83;;
18159;SDS011;9205;52.032;4.314;2023-06-10T00:55:03;8.80;;;4.80;;
18159;SDS011;9205;52.032;4.314;2023-06-10T00:57:33;7.50;;;4.50;;
18159;SDS011;9205;52.032;4.314;2023-06-10T01:00:05;6.50;;;4.60;;
18159;SDS011;9205;52.032;4.314;2023-06-10T01:02:35;8.67;;;4.43;;
18159;SDS011;9205;52.032;4.314;2023-06-10T01:05:03;6.33;;;4.40;;
18159;SDS011;9205;52.032;4.314;2023-06-10T01:07:34;6.30;;;4.40;;
18159;SDS011;9205;52.032;4.314;2023-06-10T01:10:12;5.97;;;4.03;;
18159;SDS011;9205;52.032;4.314;2023-06-10T01:12:52;7.57;;;4.70;;
18159;SDS011;9205;52.032;4.314;2023-06-10T01:15:29;7.33;;;4.43;;
18159;SDS011;9205;52.032;4.314;2023-06-10T01:17:58;5.77;;;4.20;;
18159;SDS011;9205;52.032;4.314;2023-06-10T01:20:30;8.27;;;4.37;;
18159;SDS011;9205;52.032;4.314;2023-06-10T01:23:00;5.97;;;4.13;;
18159;SDS011;9205;52.032;4.314;2023-06-10T01:25:29;6.17;;;4.20;;
18159;SDS011;9205;52.032;4.314;2023-06-10T01:28:02;5.53;;;4.00;;
18159;SDS011;9205;52.032;4.314;2023-06-10T01:30:49;6.33;;;4.10;;
18159;SDS011;9205;52.032;4.314;2023-06-10T01:33:27;8.77;;;3.93;;
18159;SDS011;9205;52.032;4.314;2023-06-10T01:35:58;7.30;;;3.90;;
18159;SDS011;9205;52.032;4.314;2023-06-10T01:38:30;5.87;;;3.90;;
18159;SDS011;9205;52.032;4.314;2023-06-10T01:41:03;8.60;;;4.40;;
18159;SDS011;9205;52.032;4.314;2023-06-10T01:43:33;9.03;;;3.90;;
18159;SDS011;9205;52.032;4.314;2023-06-10T01:46:01;6.37;;;3.67;;
18159;SDS011;9205;52.032;4.314;2023-06-10T01:48:30;8.87;;;4.07;;
18159;SDS011;9205;52.032;4.314;2023-06-10T01:50:58;7.07;;;3.77;;
18159;SDS011;9205;52.032;4.314;2023-06-10T01:53:25;5.37;;;3.23;;
18159;SDS011;9205;52.032;4.314;2023-06-10T01:55:55;6.67;;;4.10;;
18159;SDS011;9205;52.032;4.314;2023-06-10T01:58:24;8.47;;;3.77;;
18159;SDS011;9205;52.032;4.314;2023-06-10T02:00:52;5.43;;;3.50;;
18159;SDS011;9205;52.032;4.314;2023-06-10T02:03:20;9.10;;;3.80;;
18159;SDS011;9205;52.032;4.314;2023-06-10T02:05:48;6.70;;;3.67;;
18159;SDS011;9205;52.032;4.314;2023-06-10T02:08:16;9.60;;;4.23;;
18159;SDS011;9205;52.032;4.314;2023-06-10T02:10:44;5.87;;;3.30;;
18159;SDS011;9205;52.032;4.314;2023-06-10T02:13:15;5.80;;;3.73;;
18159;SDS011;9205;52.032;4.314;2023-06-10T02:15:43;6.53;;;4.37;;
18159;SDS011;9205;52.032;4.314;2023-06-10T02:18:11;6.17;;;3.43;;
18159;SDS011;9205;52.032;4.314;2023-06-10T02:20:40;7.53;;;3.67;;
18159;SDS011;9205;52.032;4.314;2023-06-10T02:23:07;5.00;;;3.63;;
18159;SDS011;9205;52.032;4.314;2023-06-10T02:25:35;8.80;;;3.60;;
18159;SDS011;9205;52.032;4.314;2023-06-10T02:28:03;8.40;;;3.60;;
18159;SDS011;9205;52.032;4.314;2023-06-10T02:30:33;5.20;;;3.30;;
18159;SDS011;9205;52.032;4.314;2023-06-10T02:33:01;7.00;;;3.70;;
18159;SDS011;9205;52.032;4.314;2023-06-10T02:35:28;5.37;;;3.47;;
18159;SDS011;9205;52.032;4.314;2023-06-10T02:37:56;5.50;;;3.63;;
18159;SDS011;9205;52.032;4.314;2023-06-10T02:40:27;7.60;;;3.80;;
18159;SDS011;9205;52.032;4.314;2023-06-10T02:42:54;5.27;;;3.93;;
18159;SDS011;9205;52.032;4.314;2023-06-10T02:45:23;5.97;;;3.50;;
18159;SDS011;9205;52.032;4.314;2023-06-10T02:47:52;6.43;;;4.00;;
18159;SDS011;9205;52.032;4.314;2023-06-10T02:50:21;5.03;;;3.40;;
18159;SDS011;9205;52.032;4.314;2023-06-10T02:53:08;6.80;;;3.67;;
18159;SDS011;9205;52.032;4.314;2023-06-10T02:55:40;5.83;;;3.43;;
18159;SDS011;9205;52.032;4.314;2023-06-10T02:58:12;4.60;;;3.40;;
18159;SDS011;9205;52.032;4.314;2023-06-10T03:00:42;4.90;;;3.40;;
18159;SDS011;9205;52.032;4.314;2023-06-10T03:03:13;4.50;;;3.23;;
18159;SDS011;9205;52.032;4.314;2023-06-10T03:05:53;4.67;;;3.30;;
18159;SDS011;9205;52.032;4.314;2023-06-10T03:08:23;5.50;;;3.47;;
18159;SDS011;9205;52.032;4.314;2023-06-10T03:10:51;5.10;;;3.40;;
18159;SDS011;9205;52.032;4.314;2023-06-10T03:13:20;6.13;;;3.67;;
18159;SDS011;9205;52.032;4.314;2023-06-10T03:15:47;5.43;;;3.47;;
18159;SDS011;9205;52.032;4.314;2023-06-10T03:18:19;6.53;;;3.37;;
18159;SDS011;9205;52.032;4.314;2023-06-10T03:20:49;7.37;;;3.30;;
18159;SDS011;9205;52.032;4.314;2023-06-10T03:23:17;6.03;;;3.20;;
18159;SDS011;9205;52.032;4.314;2023-06-10T03:25:46;6.83;;;3.80;;
18159;SDS011;9205;52.032;4.314;2023-06-10T03:28:16;6.10;;;3.67;;
18159;SDS011;9205;52.032;4.314;2023-06-10T03:30:44;5.97;;;3.53;;
18159;SDS011;9205;52.032;4.314;2023-06-10T03:33:12;7.27;;;3.70;;
18159;SDS011;9205;52.032;4.314;2023-06-10T03:35:42;6.97;;;3.63;;
18159;SDS011;9205;52.032;4.314;2023-06-10T03:38:11;7.27;;;3.60;;
18159;SDS011;9205;52.032;4.314;2023-06-10T03:40:39;5.87;;;3.47;;
18159;SDS011;9205;52.032;4.314;2023-06-10T03:43:07;5.40;;;3.47;;
18159;SDS011;9205;52.032;4.314;2023-06-10T03:45:35;6.03;;;3.73;;
18159;SDS011;9205;52.032;4.314;2023-06-10T03:48:03;5.60;;;3.60;;
18159;SDS011;9205;52.032;4.314;2023-06-10T03:50:43;5.00;;;3.17;;
18159;SDS011;9205;52.032;4.314;2023-06-10T03:53:12;7.17;;;3.67;;
18159;SDS011;9205;52.032;4.314;2023-06-10T03:55:42;5.73;;;3.50;;
18159;SDS011;9205;52.032;4.314;2023-06-10T03:58:10;5.53;;;3.43;;
18159;SDS011;9205;52.032;4.314;2023-06-10T04:00:40;5.03;;;3.23;;
18159;SDS011;9205;52.032;4.314;2023-06-10T04:03:08;9.27;;;3.83;;
18159;SDS011;9205;52.032;4.314;2023-06-10T04:05:45;6.60;;;3.37;;
18159;SDS011;9205;52.032;4.314;2023-06-10T04:08:13;7.10;;;3.70;;
18159;SDS011;9205;52.032;4.314;2023-06-10T04:10:40;7.03;;;3.50;;
18159;SDS011;9205;52.032;4.314;2023-06-10T04:13:11;7.73;;;3.83;;
18159;SDS011;9205;52.032;4.314;2023-06-10T04:15:47;8.37;;;3.87;;
18159;SDS011;9205;52.032;4.314;2023-06-10T04:18:16;8.33;;;4.10;;
18159;SDS011;9205;52.032;4.314;2023-06-10T04:20:47;8.50;;;3.57;;
18159;SDS011;9205;52.032;4.314;2023-06-10T04:23:16;5.83;;;3.30;;
18159;SDS011;9205;52.032;4.314;2023-06-10T04:25:45;6.70;;;3.30;;
18159;SDS011;9205;52.032;4.314;2023-06-10T04:28:13;6.33;;;3.73;;
18159;SDS011;9205;52.032;4.314;2023-06-10T04:30:42;5.93;;;3.40;;
18159;SDS011;9205;52.032;4.314;2023-06-10T04:33:11;5.20;;;3.50;;
18159;SDS011;9205;52.032;4.314;2023-06-10T04:35:39;6.73;;;3.57;;
18159;SDS011;9205;52.032;4.314;2023-06-10T04:38:12;6.13;;;3.53;;
18159;SDS011;9205;52.032;4.314;2023-06-10T04:40:40;6.70;;;3.37;;
18159;SDS011;9205;52.032;4.314;2023-06-10T04:43:10;6.50;;;3.47;;
18159;SDS011;9205;52.032;4.314;2023-06-10T04:45:38;8.77;;;3.80;;
18159;SDS011;9205;52.032;4.314;2023-06-10T04:48:10;6.50;;;3.17;;
18159;SDS011;9205;52.032;4.314;2023-06-10T04:50:39;7.27;;;3.63;;
18159;SDS011;9205;52.032;4.314;2023-06-10T04:53:06;10.83;;;4.10;;
18159;SDS011;9205;52.032;4.314;2023-06-10T04:55:38;5.73;;;3.43;;
18159;SDS011;9205;52.032;4.314;2023-06-10T04:58:05;7.33;;;3.50;;
18159;SDS011;9205;52.032;4.314;2023-06-10T05:00:33;6.27;;;3.63;;
18159;SDS011;9205;52.032;4.314;2023-06-10T05:03:01;7.63;;;3.80;;
18159;SDS011;9205;52.032;4.314;2023-06-10T05:05:29;5.80;;;3.37;;
18159;SDS011;9205;52.032;4.314;2023-06-10T05:07:57;5.37;;;2.90;;
18159;SDS011;9205;52.032;4.314;2023-06-10T05:10:24;8.90;;;3.47;;
18159;SDS011;9205;52.032;4.314;2023-06-10T05:12:58;7.27;;;3.40;;
18159;SDS011;9205;52.032;4.314;2023-06-10T05:15:27;5.20;;;3.10;;
18159;SDS011;9205;52.032;4.314;2023-06-10T05:17:56;6.60;;;3.63;;
18159;SDS011;9205;52.032;4.314;2023-06-10T05:20:24;7.43;;;3.57;;
18159;SDS011;9205;52.032;4.314;2023-06-10T05:22:53;7.23;;;4.13;;
18159;SDS011;9205;52.032;4.314;2023-06-10T05:25:21;5.70;;;3.20;;
18159;SDS011;9205;52.032;4.314;2023-06-10T05:27:49;6.70;;;3.40;;
18159;SDS011;9205;52.032;4.314;2023-06-10T05:30:18;8.97;;;3.70;;
18159;SDS011;9205;52.032;4.314;2023-06-10T05:32:45;8.70;;;3.80;;
18159;SDS011;9205;52.032;4.314;2023-06-10T05:35:13;4.83;;;3.23;;
18159;SDS011;9205;52.032;4.314;2023-06-10T05:37:41;5.70;;;3.30;;
18159;SDS011;9205;52.032;4.314;2023-06-10T05:40:09;5.77;;;3.30;;
18159;SDS011;9205;52.032;4.314;2023-06-10T05:42:38;6.87;;;3.60;;
18159;SDS011;9205;52.032;4.314;2023-06-10T05:45:06;7.17;;;3.80;;
18159;SDS011;9205;52.032;4.314;2023-06-10T05:47:39;6.40;;;3.60;;
18159;SDS011;9205;52.032;4.314;2023-06-10T05:50:07;6.27;;;3.87;;
18159;SDS011;9205;52.032;4.314;2023-06-10T05:52:36;8.50;;;3.73;;
18159;SDS011;9205;52.032;4.314;2023-06-10T05:55:12;5.17;;;3.67;;
18159;SDS011;9205;52.032;4.314;2023-06-10T05:57:40;8.40;;;3.33;;
18159;SDS011;9205;52.032;4.314;2023-06-10T06:00:09;6.07;;;3.97;;
18159;SDS011;9205;52.032;4.314;2023-06-10T06:02:39;12.07;;;4.20;;
18159;SDS011;9205;52.032;4.314;2023-06-10T06:05:08;8.90;;;3.77;;
18159;SDS011;9205;52.032;4.314;2023-06-10T06:07:36;6.97;;;4.20;;
18159;SDS011;9205;52.032;4.314;2023-06-10T06:10:07;6.17;;;3.70;;
18159;SDS011;9205;52.032;4.314;2023-06-10T06:12:36;6.53;;;3.93;;
18159;SDS011;9205;52.032;4.314;2023-06-10T06:15:04;6.47;;;3.70;;
18159;SDS011;9205;52.032;4.314;2023-06-10T06:17:33;6.70;;;3.80;;
18159;SDS011;9205;52.032;4.314;2023-06-10T06:20:08;8.13;;;3.70;;
18159;SDS011;9205;52.032;4.314;2023-06-10T06:22:36;6.73;;;3.83;;
18159;SDS011;9205;52.032;4.314;2023-06-10T06:25:04;6.97;;;3.70;;
18159;SDS011;9205;52.032;4.314;2023-06-10T06:27:42;7.60;;;3.87;;
18159;SDS011;9205;52.032;4.314;2023-06-10T06:30:13;8.20;;;3.73;;
18159;SDS011;9205;52.032;4.314;2023-06-10T06:32:44;7.33;;;3.97;;
18159;SDS011;9205;52.032;4.314;2023-06-10T06:35:14;7.20;;;3.90;;
18159;SDS011;9205;52.032;4.314;2023-06-10T06:37:42;7.43;;;3.90;;
18159;SDS011;9205;52.032;4.314;2023-06-10T06:40:22;9.17;;;4.40;;
18159;SDS011;9205;52.032;4.314;2023-06-10T06:42:51;5.20;;;3.40;;
18159;SDS011;9205;52.032;4.314;2023-06-10T06:45:32;8.20;;;4.27;;
18159;SDS011;9205;52.032;4.314;2023-06-10T06:48:00;9.37;;;4.60;;
18159;SDS011;9205;52.032;4.314;2023-06-10T06:50:31;7.07;;;4.10;;
18159;SDS011;9205;52.032;4.314;2023-06-10T06:52:58;6.73;;;3.93;;
18159;SDS011;9205;52.032;4.314;2023-06-10T06:55:26;6.00;;;3.80;;
18159;SDS011;9205;52.032;4.314;2023-06-10T06:57:54;6.37;;;4.13;;
18159;SDS011;9205;52.032;4.314;2023-06-10T07:00:22;8.30;;;4.10;;
18159;SDS011;9205;52.032;4.314;2023-06-10T07:02:50;7.17;;;4.13;;
18159;SDS011;9205;52.032;4.314;2023-06-10T07:05:18;9.43;;;4.00;;
18159;SDS011;9205;52.032;4.314;2023-06-10T07:07:47;8.93;;;4.00;;
18159;SDS011;9205;52.032;4.314;2023-06-10T07:10:20;7.60;;;4.10;;
18159;SDS011;9205;52.032;4.314;2023-06-10T07:12:48;5.87;;;3.60;;
18159;SDS011;9205;52.032;4.314;2023-06-10T07:15:16;8.90;;;4.23;;
18159;SDS011;9205;52.032;4.314;2023-06-10T07:17:45;8.47;;;4.00;;
18159;SDS011;9205;52.032;4.314;2023-06-10T07:20:13;7.97;;;4.33;;
18159;SDS011;9205;52.032;4.314;2023-06-10T07:22:41;6.87;;;4.00;;
18159;SDS011;9205;52.032;4.314;2023-06-10T07:25:11;6.10;;;3.73;;
18159;SDS011;9205;52.032;4.314;2023-06-10T07:27:38;6.97;;;3.33;;
18159;SDS011;9205;52.032;4.314;2023-06-10T07:30:07;6.97;;;4.33;;
18159;SDS011;9205;52.032;4.314;2023-06-10T07:32:36;8.63;;;3.90;;
18159;SDS011;9205;52.032;4.314;2023-06-10T07:35:05;6.63;;;4.20;;
18159;SDS011;9205;52.032;4.314;2023-06-10T07:37:35;6.23;;;4.20;;
18159;SDS011;9205;52.032;4.314;2023-06-10T07:40:03;4.90;;;3.30;;
18159;SDS011;9205;52.032;4.314;2023-06-10T07:42:35;5.53;;;3.73;;
18159;SDS011;9205;52.032;4.314;2023-06-10T07:45:04;6.03;;;3.87;;
18159;SDS011;9205;52.032;4.314;2023-06-10T07:47:34;6.90;;;3.53;;
18159;SDS011;9205;52.032;4.314;2023-06-10T07:50:02;6.03;;;3.80;;
18159;SDS011;9205;52.032;4.314;2023-06-10T07:52:39;7.27;;;3.80;;
18159;SDS011;9205;52.032;4.314;2023-06-10T07:55:07;6.87;;;3.97;;
18159;SDS011;9205;52.032;4.314;2023-06-10T07:57:39;7.80;;;3.60;;
18159;SDS011;9205;52.032;4.314;2023-06-10T08:00:07;7.37;;;3.63;;
18159;SDS011;9205;52.032;4.314;2023-06-10T08:02:38;7.50;;;3.70;;
18159;SDS011;9205;52.032;4.314;2023-06-10T08:05:06;5.20;;;3.43;;
18159;SDS011;9205;52.032;4.314;2023-06-10T08:07:35;7.83;;;4.13;;
18159;SDS011;9205;52.032;4.314;2023-06-10T08:10:06;6.13;;;3.70;;
18159;SDS011;9205;52.032;4.314;2023-06-10T08:12:38;7.30;;;4.00;;
18159;SDS011;9205;52.032;4.314;2023-06-10T08:15:08;7.33;;;4.07;;
18159;SDS011;9205;52.032;4.314;2023-06-10T08:17:36;4.73;;;3.40;;
18159;SDS011;9205;52.032;4.314;2023-06-10T08:20:07;6.23;;;3.43;;
18159;SDS011;9205;52.032;4.314;2023-06-10T08:22:35;6.23;;;3.50;;
18159;SDS011;9205;52.032;4.314;2023-06-10T08:25:05;7.00;;;3.77;;
18159;SDS011;9205;52.032;4.314;2023-06-10T08:27:34;5.63;;;3.78;;
18159;SDS011;9205;52.032;4.314;2023-06-10T08:30:06;7.95;;;3.97;;
18159;SDS011;9205;52.032;4.314;2023-06-10T08:32:36;11.60;;;4.13;;
18159;SDS011;9205;52.032;4.314;2023-06-10T08:35:06;4.97;;;3.25;;
18159;SDS011;9205;52.032;4.314;2023-06-10T08:37:36;6.53;;;3.88;;
18159;SDS011;9205;52.032;4.314;2023-06-10T08:40:09;7.30;;;3.70;;
18159;SDS011;9205;52.032;4.314;2023-06-10T08:42:39;5.40;;;3.63;;
18159;SDS011;9205;52.032;4.314;2023-06-10T08:45:18;8.90;;;3.88;;
18159;SDS011;9205;52.032;4.314;2023-06-10T08:47:50;5.78;;;3.95;;
18159;SDS011;9205;52.032;4.314;2023-06-10T08:50:36;6.65;;;4.07;;
18159;SDS011;9205;52.032;4.314;2023-06-10T08:53:05;5.68;;;3.78;;
18159;SDS011;9205;52.032;4.314;2023-06-10T08:55:35;5.25;;;3.50;;
18159;SDS011;9205;52.032;4.314;2023-06-10T08:58:08;6.65;;;3.95;;
18159;SDS011;9205;52.032;4.314;2023-06-10T09:00:41;5.85;;;3.88;;
18159;SDS011;9205;52.032;4.314;2023-06-10T09:03:10;6.28;;;3.55;;
18159;SDS011;9205;52.032;4.314;2023-06-10T09:05:40;6.40;;;3.72;;
18159;SDS011;9205;52.032;4.314;2023-06-10T09:08:10;5.53;;;3.70;;
18159;SDS011;9205;52.032;4.314;2023-06-10T09:10:43;5.65;;;3.55;;
18159;SDS011;9205;52.032;4.314;2023-06-10T09:13:12;6.05;;;3.70;;
18159;SDS011;9205;52.032;4.314;2023-06-10T09:15:45;7.20;;;3.83;;
18159;SDS011;9205;52.032;4.314;2023-06-10T09:18:14;5.13;;;3.45;;
18159;SDS011;9205;52.032;4.314;2023-06-10T09:20:43;6.30;;;3.50;;
18159;SDS011;9205;52.032;4.314;2023-06-10T09:23:11;5.35;;;3.70;;
18159;SDS011;9205;52.032;4.314;2023-06-10T09:25:41;6.88;;;3.47;;
18159;SDS011;9205;52.032;4.314;2023-06-10T09:28:24;5.57;;;3.38;;
18159;SDS011;9205;52.032;4.314;2023-06-10T09:31:04;7.72;;;3.50;;
18159;SDS011;9205;52.032;4.314;2023-06-10T09:33:39;4.65;;;3.65;;
18159;SDS011;9205;52.032;4.314;2023-06-10T09:36:10;7.68;;;3.65;;
18159;SDS011;9205;52.032;4.314;2023-06-10T09:38:41;5.00;;;3.72;;
18159;SDS011;9205;52.032;4.314;2023-06-10T09:41:14;5.15;;;3.30;;
18159;SDS011;9205;52.032;4.314;2023-06-10T09:43:47;6.00;;;3.33;;
18159;SDS011;9205;52.032;4.314;2023-06-10T09:46:17;5.72;;;3.58;;
18159;SDS011;9205;52.032;4.314;2023-06-10T09:48:48;6.72;;;3.75;;
18159;SDS011;9205;52.032;4.314;2023-06-10T09:51:18;5.35;;;3.42;;
18159;SDS011;9205;52.032;4.314;2023-06-10T09:53:47;6.03;;;3.60;;
18159;SDS011;9205;52.032;4.314;2023-06-10T09:56:17;5.97;;;3.28;;
18159;SDS011;9205;52.032;4.314;2023-06-10T09:58:52;5.57;;;3.63;;
18159;SDS011;9205;52.032;4.314;2023-06-10T10:01:36;5.57;;;3.75;;
18159;SDS011;9205;52.032;4.314;2023-06-10T10:04:04;6.13;;;3.70;;
18159;SDS011;9205;52.032;4.314;2023-06-10T10:06:33;5.88;;;3.42;;
18159;SDS011;9205;52.032;4.314;2023-06-10T10:09:03;8.20;;;4.40;;
18159;SDS011;9205;52.032;4.314;2023-06-10T10:11:32;7.95;;;3.38;;
18159;SDS011;9205;52.032;4.314;2023-06-10T10:14:03;5.10;;;3.40;;
18159;SDS011;9205;52.032;4.314;2023-06-10T10:16:35;4.68;;;3.55;;
18159;SDS011;9205;52.032;4.314;2023-06-10T10:19:11;4.35;;;3.40;;
18159;SDS011;9205;52.032;4.314;2023-06-10T10:21:53;5.55;;;3.67;;
18159;SDS011;9205;52.032;4.314;2023-06-10T10:24:33;5.03;;;3.60;;
18159;SDS011;9205;52.032;4.314;2023-06-10T10:27:11;7.07;;;3.85;;
18159;SDS011;9205;52.032;4.314;2023-06-10T10:29:52;7.20;;;3.65;;
18159;SDS011;9205;52.032;4.314;2023-06-10T10:32:26;6.72;;;3.75;;
18159;SDS011;9205;52.032;4.314;2023-06-10T10:35:06;5.43;;;3.58;;
18159;SDS011;9205;52.032;4.314;2023-06-10T10:37:44;6.65;;;3.28;;
18159;SDS011;9205;52.032;4.314;2023-06-10T10:40:21;6.10;;;3.70;;
18159;SDS011;9205;52.032;4.314;2023-06-10T10:43:00;5.57;;;3.80;;
18159;SDS011;9205;52.032;4.314;2023-06-10T10:45:32;5.55;;;3.67;;
18159;SDS011;9205;52.032;4.314;2023-06-10T10:48:12;5.30;;;3.50;;
18159;SDS011;9205;52.032;4.314;2023-06-10T10:51:05;7.50;;;3.58;;
18159;SDS011;9205;52.032;4.314;2023-06-10T10:53:46;7.25;;;4.03;;
18159;SDS011;9205;52.032;4.314;2023-06-10T10:59:51;5.30;;;3.60;;
18159;SDS011;9205;52.032;4.314;2023-06-10T11:02:40;5.75;;;3.78;;
18159;SDS011;9205;52.032;4.314;2023-06-10T11:08:55;7.10;;;3.80;;
18159;SDS011;9205;52.032;4.314;2023-06-10T11:11:30;5.30;;;3.38;;
18159;SDS011;9205;52.032;4.314;2023-06-10T11:14:31;4.80;;;3.28;;
18159;SDS011;9205;52.032;4.314;2023-06-10T11:17:31;6.13;;;3.65;;
18159;SDS011;9205;52.032;4.314;2023-06-10T11:20:01;8.63;;;4.28;;
18159;SDS011;9205;52.032;4.314;2023-06-10T11:22:42;7.70;;;4.18;;
18159;SDS011;9205;52.032;4.314;2023-06-10T11:25:38;9.60;;;3.90;;
18159;SDS011;9205;52.032;4.314;2023-06-10T11:28:17;9.75;;;4.32;;
18159;SDS011;9205;52.032;4.314;2023-06-10T11:31:02;5.50;;;4.00;;
18159;SDS011;9205;52.032;4.314;2023-06-10T11:33:32;18.60;;;4.57;;
18159;SDS011;9205;52.032;4.314;2023-06-10T11:36:06;6.57;;;4.07;;
18159;SDS011;9205;52.032;4.314;2023-06-10T11:38:36;6.03;;;4.00;;
18159;SDS011;9205;52.032;4.314;2023-06-10T11:41:05;8.15;;;4.38;;
18159;SDS011;9205;52.032;4.314;2023-06-10T11:43:42;8.40;;;4.05;;
18159;SDS011;9205;52.032;4.314;2023-06-10T11:46:14;5.53;;;4.13;;
18159;SDS011;9205;52.032;4.314;2023-06-10T11:48:58;5.28;;;3.80;;
18159;SDS011;9205;52.032;4.314;2023-06-10T11:51:40;6.40;;;4.10;;
18159;SDS011;9205;52.032;4.314;2023-06-10T11:54:16;4.25;;;3.72;;
18159;SDS011;9205;52.032;4.314;2023-06-10T11:56:50;5.22;;;3.85;;
18159;SDS011;9205;52.032;4.314;2023-06-10T11:59:30;5.90;;;3.80;;
18159;SDS011;9205;52.032;4.314;2023-06-10T12:01:59;4.70;;;3.60;;
18159;SDS011;9205;52.032;4.314;2023-06-10T12:04:28;5.47;;;3.53;;
18159;SDS011;9205;52.032;4.314;2023-06-10T12:06:57;7.00;;;3.65;;
18159;SDS011;9205;52.032;4.314;2023-06-10T12:09:27;5.28;;;3.85;;
18159;SDS011;9205;52.032;4.314;2023-06-10T12:11:59;6.20;;;3.90;;
18159;SDS011;9205;52.032;4.314;2023-06-10T12:14:50;6.18;;;4.13;;
18159;SDS011;9205;52.032;4.314;2023-06-10T12:17:22;5.00;;;3.22;;
18159;SDS011;9205;52.032;4.314;2023-06-10T12:20:06;5.78;;;3.65;;
18159;SDS011;9205;52.032;4.314;2023-06-10T12:22:53;5.15;;;3.90;;
18159;SDS011;9205;52.032;4.314;2023-06-10T12:25:34;4.55;;;3.35;;
18159;SDS011;9205;52.032;4.314;2023-06-10T12:28:05;5.18;;;3.67;;
18159;SDS011;9205;52.032;4.314;2023-06-10T12:30:36;6.43;;;3.90;;
18159;SDS011;9205;52.032;4.314;2023-06-10T12:33:04;6.18;;;4.18;;
18159;SDS011;9205;52.032;4.314;2023-06-10T12:35:49;4.05;;;3.53;;
18159;SDS011;9205;52.032;4.314;2023-06-10T12:38:22;7.25;;;3.67;;
18159;SDS011;9205;52.032;4.314;2023-06-10T12:40:54;4.72;;;3.53;;
18159;SDS011;9205;52.032;4.314;2023-06-10T12:43:40;6.82;;;3.42;;
18159;SDS011;9205;52.032;4.314;2023-06-10T12:46:09;5.22;;;3.67;;
18159;SDS011;9205;52.032;4.314;2023-06-10T12:48:48;3.70;;;3.05;;
18159;SDS011;9205;52.032;4.314;2023-06-10T12:51:28;5.45;;;3.50;;
18159;SDS011;9205;52.032;4.314;2023-06-10T12:53:57;5.25;;;3.70;;
18159;SDS011;9205;52.032;4.314;2023-06-10T12:56:37;5.05;;;3.42;;
18159;SDS011;9205;52.032;4.314;2023-06-10T12:59:06;5.65;;;3.45;;
18159;SDS011;9205;52.032;4.314;2023-06-10T13:01:33;5.07;;;3.75;;
18159;SDS011;9205;52.032;4.314;2023-06-10T13:04:02;4.97;;;3.50;;
18159;SDS011;9205;52.032;4.314;2023-06-10T13:06:33;5.22;;;3.63;;
18159;SDS011;9205;52.032;4.314;2023-06-10T13:09:05;8.05;;;3.70;;
18159;SDS011;9205;52.032;4.314;2023-06-10T13:11:38;4.82;;;3.70;;
18159;SDS011;9205;52.032;4.314;2023-06-10T13:14:11;4.50;;;3.67;;
18159;SDS011;9205;52.032;4.314;2023-06-10T13:16:41;6.50;;;3.97;;
18159;SDS011;9205;52.032;4.314;2023-06-10T13:19:15;6.05;;;3.53;;
18159;SDS011;9205;52.032;4.314;2023-06-10T13:21:43;4.47;;;3.38;;
18159;SDS011;9205;52.032;4.314;2023-06-10T13:24:13;4.50;;;3.38;;
18159;SDS011;9205;52.032;4.314;2023-06-10T13:26:44;5.13;;;3.58;;
18159;SDS011;9205;52.032;4.314;2023-06-10T13:29:12;5.43;;;3.45;;
18159;SDS011;9205;52.032;4.314;2023-06-10T13:31:40;4.68;;;3.70;;
18159;SDS011;9205;52.032;4.314;2023-06-10T13:34:07;4.55;;;3.80;;
18159;SDS011;9205;52.032;4.314;2023-06-10T13:36:39;6.82;;;3.70;;
18159;SDS011;9205;52.032;4.314;2023-06-10T13:39:11;4.03;;;3.38;;
18159;SDS011;9205;52.032;4.314;2023-06-10T13:41:40;4.15;;;3.58;;
18159;SDS011;9205;52.032;4.314;2023-06-10T13:44:23;5.57;;;3.50;;
18159;SDS011;9205;52.032;4.314;2023-06-10T13:47:04;5.68;;;3.33;;
18159;SDS011;9205;52.032;4.314;2023-06-10T13:49:33;4.15;;;3.20;;
18159;SDS011;9205;52.032;4.314;2023-06-10T13:52:04;4.63;;;3.53;;
18159;SDS011;9205;52.032;4.314;2023-06-10T13:54:35;6.25;;;3.30;;
18159;SDS011;9205;52.032;4.314;2023-06-10T13:57:04;4.32;;;3.22;;
18159;SDS011;9205;52.032;4.314;2023-06-10T14:02:23;4.95;;;3.72;;
18159;SDS011;9205;52.032;4.314;2023-06-10T14:04:58;4.57;;;3.20;;
18159;SDS011;9205;52.032;4.314;2023-06-10T14:07:31;4.60;;;3.17;;
18159;SDS011;9205;52.032;4.314;2023-06-10T14:10:02;5.43;;;3.05;;
18159;SDS011;9205;52.032;4.314;2023-06-10T14:12:36;7.50;;;3.40;;
18159;SDS011;9205;52.032;4.314;2023-06-10T14:15:07;3.78;;;3.10;;
18159;SDS011;9205;52.032;4.314;2023-06-10T14:17:38;5.40;;;3.10;;
18159;SDS011;9205;52.032;4.314;2023-06-10T14:20:08;5.43;;;3.28;;
18159;SDS011;9205;52.032;4.314;2023-06-10T14:22:40;4.60;;;3.45;;
18159;SDS011;9205;52.032;4.314;2023-06-10T14:25:30;4.95;;;3.50;;
18159;SDS011;9205;52.032;4.314;2023-06-10T14:28:18;4.15;;;3.25;;
18159;SDS011;9205;52.032;4.314;2023-06-10T14:30:55;6.13;;;3.38;;
18159;SDS011;9205;52.032;4.314;2023-06-10T14:33:39;4.70;;;3.38;;
18159;SDS011;9205;52.032;4.314;2023-06-10T14:36:08;3.97;;;3.03;;
18159;SDS011;9205;52.032;4.314;2023-06-10T14:38:44;6.13;;;3.10;;
18159;SDS011;9205;52.032;4.314;2023-06-10T14:41:13;5.53;;;3.47;;
18159;SDS011;9205;52.032;4.314;2023-06-10T14:43:42;3.60;;;2.72;;
18159;SDS011;9205;52.032;4.314;2023-06-10T14:46:14;4.32;;;2.88;;
18159;SDS011;9205;52.032;4.314;2023-06-10T14:48:53;5.78;;;3.38;;
18159;SDS011;9205;52.032;4.314;2023-06-10T14:51:24;3.90;;;2.88;;
18159;SDS011;9205;52.032;4.314;2023-06-10T14:56:37;5.82;;;3.15;;
18159;SDS011;9205;52.032;4.314;2023-06-10T14:59:23;5.72;;;3.10;;
18159;SDS011;9205;52.032;4.314;2023-06-10T15:04:59;5.10;;;2.95;;
18159;SDS011;9205;52.032;4.314;2023-06-10T15:07:27;3.90;;;3.28;;
18159;SDS011;9205;52.032;4.314;2023-06-10T15:10:07;3.95;;;2.83;;
18159;SDS011;9205;52.032;4.314;2023-06-10T15:12:50;5.15;;;3.08;;
18159;SDS011;9205;52.032;4.314;2023-06-10T15:15:29;5.47;;;2.70;;
18159;SDS011;9205;52.032;4.314;2023-06-10T15:18:00;5.28;;;3.20;;
18159;SDS011;9205;52.032;4.314;2023-06-10T15:20:41;3.58;;;2.63;;
18159;SDS011;9205;52.032;4.314;2023-06-10T15:23:22;3.78;;;2.65;;
18159;SDS011;9205;52.032;4.314;2023-06-10T15:26:11;5.57;;;3.20;;
18159;SDS011;9205;52.032;4.314;2023-06-10T15:28:55;4.40;;;3.05;;
18159;SDS011;9205;52.032;4.314;2023-06-10T15:31:36;3.95;;;2.63;;
18159;SDS011;9205;52.032;4.314;2023-06-10T15:34:20;3.72;;;2.60;;
18159;SDS011;9205;52.032;4.314;2023-06-10T15:37:04;4.43;;;2.70;;
18159;SDS011;9205;52.032;4.314;2023-06-10T15:39:48;4.50;;;3.03;;
18159;SDS011;9205;52.032;4.314;2023-06-10T15:42:18;6.32;;;3.65;;
18159;SDS011;9205;52.032;4.314;2023-06-10T15:44:52;4.22;;;2.97;;